sensor_id;sensor_type;location;lat;lon;timestamp;P1;durP1;ratioP1;P2;durP2;ratioP2
35418;SDS011;21525;41.240;16.500;2023-02-28T00:00:12;11.63;;;3.60;;
35418;SDS011;21525;41.240;16.500;2023-02-28T00:02:40;13.55;;;3.40;;
35418;SDS011;21525;41.240;16.500;2023-02-28T00:05:07;16.45;;;4.30;;
35418;SDS011;21525;41.240;16.500;2023-02-28T00:07:34;9.07;;;2.95;;
35418;SDS011;21525;41.240;16.500;2023-02-28T00:10:00;9.82;;;3.20;;
35418;SDS011;21525;41.240;16.500;2023-02-28T00:12:26;10.57;;;3.35;;
35418;SDS011;21525;41.240;16.500;2023-02-28T00:14:52;11.10;;;3.08;;
35418;SDS011;21525;41.240;16.500;2023-02-28T00:17:18;8.15;;;2.95;;
35418;SDS011;21525;41.240;16.500;2023-02-28T00:19:47;10.43;;;3.92;;
35418;SDS011;21525;41.240;16.500;2023-02-28T00:22:14;8.32;;;3.10;;
35418;SDS011;21525;41.240;16.500;2023-02-28T00:24:41;10.73;;;3.25;;
35418;SDS011;21525;41.240;16.500;2023-02-28T00:27:07;9.57;;;3.17;;
35418;SDS011;21525;41.240;16.500;2023-02-28T00:29:33;8.57;;;3.08;;
35418;SDS011;21525;41.240;16.500;2023-02-28T00:31:59;10.90;;;3.38;;
35418;SDS011;21525;41.240;16.500;2023-02-28T00:34:24;10.00;;;3.10;;
35418;SDS011;21525;41.240;16.500;2023-02-28T00:36:52;12.90;;;3.17;;
35418;SDS011;21525;41.240;16.500;2023-02-28T00:39:17;10.23;;;3.33;;
35418;SDS011;21525;41.240;16.500;2023-02-28T00:41:43;19.35;;;3.83;;
35418;SDS011;21525;41.240;16.500;2023-02-28T00:44:09;12.35;;;3.45;;
35418;SDS011;21525;41.240;16.500;2023-02-28T00:46:35;9.25;;;3.10;;
35418;SDS011;21525;41.240;16.500;2023-02-28T00:49:00;10.15;;;3.40;;
35418;SDS011;21525;41.240;16.500;2023-02-28T00:51:26;11.15;;;3.17;;
35418;SDS011;21525;41.240;16.500;2023-02-28T00:53:52;11.88;;;3.00;;
35418;SDS011;21525;41.240;16.500;2023-02-28T00:56:18;7.50;;;2.92;;
35418;SDS011;21525;41.240;16.500;2023-02-28T00:58:43;5.63;;;2.88;;
35418;SDS011;21525;41.240;16.500;2023-02-28T01:01:09;8.80;;;3.42;;
35418;SDS011;21525;41.240;16.500;2023-02-28T01:03:37;6.40;;;3.00;;
35418;SDS011;21525;41.240;16.500;2023-02-28T01:06:03;12.85;;;3.30;;
35418;SDS011;21525;41.240;16.500;2023-02-28T01:08:29;12.52;;;3.28;;
35418;SDS011;21525;41.240;16.500;2023-02-28T01:10:55;9.00;;;3.17;;
35418;SDS011;21525;41.240;16.500;2023-02-28T01:13:21;11.45;;;3.65;;
35418;SDS011;21525;41.240;16.500;2023-02-28T01:15:53;7.93;;;3.38;;
35418;SDS011;21525;41.240;16.500;2023-02-28T01:18:22;8.30;;;3.15;;
35418;SDS011;21525;41.240;16.500;2023-02-28T01:20:48;8.38;;;3.53;;
35418;SDS011;21525;41.240;16.500;2023-02-28T01:23:15;8.63;;;2.90;;
35418;SDS011;21525;41.240;16.500;2023-02-28T01:25:41;11.57;;;3.20;;
35418;SDS011;21525;41.240;16.500;2023-02-28T01:28:07;7.90;;;3.30;;
35418;SDS011;21525;41.240;16.500;2023-02-28T01:30:33;5.40;;;3.13;;
35418;SDS011;21525;41.240;16.500;2023-02-28T01:32:59;10.48;;;3.25;;
35418;SDS011;21525;41.240;16.500;2023-02-28T01:35:25;9.13;;;3.13;;
35418;SDS011;21525;41.240;16.500;2023-02-28T01:37:51;7.80;;;3.10;;
35418;SDS011;21525;41.240;16.500;2023-02-28T01:40:17;10.73;;;4.07;;
35418;SDS011;21525;41.240;16.500;2023-02-28T01:42:43;6.93;;;3.00;;
35418;SDS011;21525;41.240;16.500;2023-02-28T01:45:20;9.65;;;3.45;;
35418;SDS011;21525;41.240;16.500;2023-02-28T01:47:51;7.82;;;3.10;;
35418;SDS011;21525;41.240;16.500;2023-02-28T01:50:21;12.13;;;3.50;;
35418;SDS011;21525;41.240;16.500;2023-02-28T01:52:50;8.93;;;3.28;;
35418;SDS011;21525;41.240;16.500;2023-02-28T01:55:19;12.25;;;3.45;;
35418;SDS011;21525;41.240;16.500;2023-02-28T01:57:51;10.15;;;3.30;;
35418;SDS011;21525;41.240;16.500;2023-02-28T02:00:21;12.35;;;3.63;;
35418;SDS011;21525;41.240;16.500;2023-02-28T02:02:50;10.77;;;3.90;;
35418;SDS011;21525;41.240;16.500;2023-02-28T02:05:20;8.88;;;3.20;;
35418;SDS011;21525;41.240;16.500;2023-02-28T02:07:48;9.80;;;3.20;;
35418;SDS011;21525;41.240;16.500;2023-02-28T02:10:20;8.68;;;3.70;;
35418;SDS011;21525;41.240;16.500;2023-02-28T02:18:23;8.77;;;3.55;;
35418;SDS011;21525;41.240;16.500;2023-02-28T02:35:04;13.10;;;4.13;;
35418;SDS011;21525;41.240;16.500;2023-02-28T02:48:06;9.25;;;5.60;;
35418;SDS011;21525;41.240;16.500;2023-02-28T02:53:40;10.73;;;5.07;;
35418;SDS011;21525;41.240;16.500;2023-02-28T02:56:12;9.27;;;4.28;;
35418;SDS011;21525;41.240;16.500;2023-02-28T02:58:41;14.32;;;9.43;;
35418;SDS011;21525;41.240;16.500;2023-02-28T03:01:12;11.80;;;7.53;;
35418;SDS011;21525;41.240;16.500;2023-02-28T03:04:12;10.95;;;6.45;;
35418;SDS011;21525;41.240;16.500;2023-02-28T03:06:42;12.82;;;7.68;;
35418;SDS011;21525;41.240;16.500;2023-02-28T03:09:08;14.38;;;9.75;;
35418;SDS011;21525;41.240;16.500;2023-02-28T03:11:35;15.18;;;8.65;;
35418;SDS011;21525;41.240;16.500;2023-02-28T03:16:57;16.10;;;10.35;;
35418;SDS011;21525;41.240;16.500;2023-02-28T03:22:31;14.98;;;5.80;;
35418;SDS011;21525;41.240;16.500;2023-02-28T03:25:32;27.38;;;18.23;;
35418;SDS011;21525;41.240;16.500;2023-02-28T03:28:19;22.50;;;13.52;;
35418;SDS011;21525;41.240;16.500;2023-02-28T03:30:57;12.43;;;7.78;;
35418;SDS011;21525;41.240;16.500;2023-02-28T03:33:37;17.42;;;9.23;;
35418;SDS011;21525;41.240;16.500;2023-02-28T03:36:09;26.65;;;16.35;;
35418;SDS011;21525;41.240;16.500;2023-02-28T03:39:13;15.43;;;9.27;;
35418;SDS011;21525;41.240;16.500;2023-02-28T03:41:35;9.60;;;4.75;;
35418;SDS011;21525;41.240;16.500;2023-02-28T03:44:11;8.73;;;4.53;;
35418;SDS011;21525;41.240;16.500;2023-02-28T03:49:43;11.50;;;5.75;;
35418;SDS011;21525;41.240;16.500;2023-02-28T03:52:14;13.60;;;9.23;;
35418;SDS011;21525;41.240;16.500;2023-02-28T03:54:45;10.20;;;5.55;;
35418;SDS011;21525;41.240;16.500;2023-02-28T04:00:11;11.75;;;5.82;;
35418;SDS011;21525;41.240;16.500;2023-02-28T04:02:53;11.00;;;6.53;;
35418;SDS011;21525;41.240;16.500;2023-02-28T04:05:20;7.93;;;3.80;;
35418;SDS011;21525;41.240;16.500;2023-02-28T04:07:46;5.25;;;3.25;;
35418;SDS011;21525;41.240;16.500;2023-02-28T04:10:13;8.85;;;4.20;;
35418;SDS011;21525;41.240;16.500;2023-02-28T04:12:40;8.60;;;4.20;;
35418;SDS011;21525;41.240;16.500;2023-02-28T04:15:06;9.07;;;4.10;;
35418;SDS011;21525;41.240;16.500;2023-02-28T04:17:33;12.48;;;4.00;;
35418;SDS011;21525;41.240;16.500;2023-02-28T04:19:59;10.15;;;4.53;;
35418;SDS011;21525;41.240;16.500;2023-02-28T04:22:24;7.15;;;3.72;;
35418;SDS011;21525;41.240;16.500;2023-02-28T04:24:53;7.18;;;3.80;;
35418;SDS011;21525;41.240;16.500;2023-02-28T04:27:20;6.80;;;3.80;;
35418;SDS011;21525;41.240;16.500;2023-02-28T04:29:46;19.15;;;5.75;;
35418;SDS011;21525;41.240;16.500;2023-02-28T04:32:12;10.40;;;3.97;;
35418;SDS011;21525;41.240;16.500;2023-02-28T04:34:38;8.23;;;4.15;;
35418;SDS011;21525;41.240;16.500;2023-02-28T04:37:06;8.00;;;4.15;;
35418;SDS011;21525;41.240;16.500;2023-02-28T04:39:34;9.07;;;3.75;;
35418;SDS011;21525;41.240;16.500;2023-02-28T04:44:27;11.40;;;5.65;;
35418;SDS011;21525;41.240;16.500;2023-02-28T04:46:53;13.68;;;5.78;;
35418;SDS011;21525;41.240;16.500;2023-02-28T04:49:19;14.43;;;5.85;;
35418;SDS011;21525;41.240;16.500;2023-02-28T04:51:44;15.05;;;6.65;;
35418;SDS011;21525;41.240;16.500;2023-02-28T04:54:10;14.02;;;5.57;;
35418;SDS011;21525;41.240;16.500;2023-02-28T04:56:36;8.10;;;4.75;;
35418;SDS011;21525;41.240;16.500;2023-02-28T04:59:02;11.80;;;4.85;;
35418;SDS011;21525;41.240;16.500;2023-02-28T05:01:31;8.98;;;4.47;;
35418;SDS011;21525;41.240;16.500;2023-02-28T05:03:59;12.63;;;6.07;;
35418;SDS011;21525;41.240;16.500;2023-02-28T05:06:28;12.25;;;5.07;;
35418;SDS011;21525;41.240;16.500;2023-02-28T05:08:55;12.63;;;5.75;;
35418;SDS011;21525;41.240;16.500;2023-02-28T05:11:26;15.40;;;5.05;;
35418;SDS011;21525;41.240;16.500;2023-02-28T05:13:54;9.85;;;4.93;;
35418;SDS011;21525;41.240;16.500;2023-02-28T05:16:21;11.93;;;5.43;;
35418;SDS011;21525;41.240;16.500;2023-02-28T05:18:47;9.93;;;4.53;;
35418;SDS011;21525;41.240;16.500;2023-02-28T05:23:51;8.10;;;5.27;;
35418;SDS011;21525;41.240;16.500;2023-02-28T05:26:18;12.48;;;6.00;;
35418;SDS011;21525;41.240;16.500;2023-02-28T05:28:44;11.13;;;5.78;;
35418;SDS011;21525;41.240;16.500;2023-02-28T05:31:10;17.35;;;7.28;;
35418;SDS011;21525;41.240;16.500;2023-02-28T05:33:36;13.88;;;5.88;;
35418;SDS011;21525;41.240;16.500;2023-02-28T05:36:02;12.02;;;6.55;;
35418;SDS011;21525;41.240;16.500;2023-02-28T05:38:28;19.80;;;8.43;;
35418;SDS011;21525;41.240;16.500;2023-02-28T05:40:54;21.33;;;9.55;;
35418;SDS011;21525;41.240;16.500;2023-02-28T05:43:20;27.70;;;12.32;;
35418;SDS011;21525;41.240;16.500;2023-02-28T05:45:46;28.83;;;18.00;;
35418;SDS011;21525;41.240;16.500;2023-02-28T05:48:11;37.85;;;21.02;;
35418;SDS011;21525;41.240;16.500;2023-02-28T05:50:37;39.88;;;24.60;;
35418;SDS011;21525;41.240;16.500;2023-02-28T05:53:03;42.85;;;25.35;;
35418;SDS011;21525;41.240;16.500;2023-02-28T05:55:29;42.65;;;24.63;;
35418;SDS011;21525;41.240;16.500;2023-02-28T05:57:55;35.92;;;20.45;;
35418;SDS011;21525;41.240;16.500;2023-02-28T06:00:21;32.35;;;19.38;;
35418;SDS011;21525;41.240;16.500;2023-02-28T06:02:47;32.45;;;18.25;;
35418;SDS011;21525;41.240;16.500;2023-02-28T06:05:15;25.58;;;14.88;;
35418;SDS011;21525;41.240;16.500;2023-02-28T06:07:43;21.92;;;12.20;;
35418;SDS011;21525;41.240;16.500;2023-02-28T06:10:10;20.27;;;11.18;;
35418;SDS011;21525;41.240;16.500;2023-02-28T06:12:37;17.65;;;10.15;;
35418;SDS011;21525;41.240;16.500;2023-02-28T06:15:03;20.10;;;10.52;;
35418;SDS011;21525;41.240;16.500;2023-02-28T06:17:29;19.20;;;10.77;;
35418;SDS011;21525;41.240;16.500;2023-02-28T06:19:55;14.98;;;8.35;;
35418;SDS011;21525;41.240;16.500;2023-02-28T06:22:21;18.02;;;9.95;;
35418;SDS011;21525;41.240;16.500;2023-02-28T06:24:47;14.60;;;9.32;;
35418;SDS011;21525;41.240;16.500;2023-02-28T06:27:14;22.05;;;11.90;;
35418;SDS011;21525;41.240;16.500;2023-02-28T06:29:40;22.95;;;13.38;;
35418;SDS011;21525;41.240;16.500;2023-02-28T06:32:07;26.98;;;16.55;;
35418;SDS011;21525;41.240;16.500;2023-02-28T06:34:33;27.15;;;15.25;;
35418;SDS011;21525;41.240;16.500;2023-02-28T06:36:59;22.75;;;13.45;;
35418;SDS011;21525;41.240;16.500;2023-02-28T06:39:29;51.28;;;16.27;;
35418;SDS011;21525;41.240;16.500;2023-02-28T06:41:55;49.95;;;16.48;;
35418;SDS011;21525;41.240;16.500;2023-02-28T06:44:21;57.50;;;17.10;;
35418;SDS011;21525;41.240;16.500;2023-02-28T06:46:48;76.10;;;19.42;;
35418;SDS011;21525;41.240;16.500;2023-02-28T06:49:14;76.43;;;17.92;;
35418;SDS011;21525;41.240;16.500;2023-02-28T06:51:42;70.07;;;19.27;;
35418;SDS011;21525;41.240;16.500;2023-02-28T06:54:12;26.25;;;13.80;;
35418;SDS011;21525;41.240;16.500;2023-02-28T06:56:38;27.70;;;15.18;;
35418;SDS011;21525;41.240;16.500;2023-02-28T06:59:05;27.52;;;12.65;;
35418;SDS011;21525;41.240;16.500;2023-02-28T07:01:31;36.03;;;15.13;;
35418;SDS011;21525;41.240;16.500;2023-02-28T07:03:58;30.70;;;12.60;;
35418;SDS011;21525;41.240;16.500;2023-02-28T07:06:25;26.25;;;11.95;;
35418;SDS011;21525;41.240;16.500;2023-02-28T07:08:54;29.08;;;9.82;;
35418;SDS011;21525;41.240;16.500;2023-02-28T07:11:21;19.88;;;9.23;;
35418;SDS011;21525;41.240;16.500;2023-02-28T07:13:48;41.13;;;12.95;;
35418;SDS011;21525;41.240;16.500;2023-02-28T07:16:16;18.02;;;8.40;;
35418;SDS011;21525;41.240;16.500;2023-02-28T07:18:42;31.45;;;9.57;;
35418;SDS011;21525;41.240;16.500;2023-02-28T07:21:08;14.57;;;7.93;;
35418;SDS011;21525;41.240;16.500;2023-02-28T07:23:36;16.58;;;7.78;;
35418;SDS011;21525;41.240;16.500;2023-02-28T07:26:07;15.82;;;8.18;;
35418;SDS011;21525;41.240;16.500;2023-02-28T07:28:36;25.33;;;9.23;;
35418;SDS011;21525;41.240;16.500;2023-02-28T07:31:06;18.30;;;9.30;;
35418;SDS011;21525;41.240;16.500;2023-02-28T07:33:32;21.35;;;8.25;;
35418;SDS011;21525;41.240;16.500;2023-02-28T07:36:00;18.77;;;9.43;;
35418;SDS011;21525;41.240;16.500;2023-02-28T07:38:29;18.48;;;9.63;;
35418;SDS011;21525;41.240;16.500;2023-02-28T07:40:55;24.00;;;10.48;;
35418;SDS011;21525;41.240;16.500;2023-02-28T07:43:21;19.17;;;10.77;;
35418;SDS011;21525;41.240;16.500;2023-02-28T07:45:47;19.92;;;10.38;;
35418;SDS011;21525;41.240;16.500;2023-02-28T07:48:13;33.33;;;11.07;;
35418;SDS011;21525;41.240;16.500;2023-02-28T07:50:38;42.72;;;10.73;;
35418;SDS011;21525;41.240;16.500;2023-02-28T07:53:04;24.90;;;9.73;;
35418;SDS011;21525;41.240;16.500;2023-02-28T07:55:30;25.13;;;9.60;;
35418;SDS011;21525;41.240;16.500;2023-02-28T07:57:56;27.83;;;10.35;;
35418;SDS011;21525;41.240;16.500;2023-02-28T08:00:23;20.40;;;11.13;;
35418;SDS011;21525;41.240;16.500;2023-02-28T08:02:49;22.42;;;11.68;;
35418;SDS011;21525;41.240;16.500;2023-02-28T08:05:15;21.65;;;11.00;;
35418;SDS011;21525;41.240;16.500;2023-02-28T08:07:41;23.17;;;9.73;;
35418;SDS011;21525;41.240;16.500;2023-02-28T08:10:07;24.33;;;11.00;;
35418;SDS011;21525;41.240;16.500;2023-02-28T08:12:35;23.83;;;11.45;;
35418;SDS011;21525;41.240;16.500;2023-02-28T08:15:01;26.58;;;13.85;;
35418;SDS011;21525;41.240;16.500;2023-02-28T08:17:27;25.55;;;12.70;;
35418;SDS011;21525;41.240;16.500;2023-02-28T08:19:53;22.25;;;10.88;;
35418;SDS011;21525;41.240;16.500;2023-02-28T08:22:19;25.23;;;13.20;;
35418;SDS011;21525;41.240;16.500;2023-02-28T08:24:45;23.17;;;11.48;;
35418;SDS011;21525;41.240;16.500;2023-02-28T08:27:11;30.67;;;12.63;;
35418;SDS011;21525;41.240;16.500;2023-02-28T08:29:37;22.10;;;10.63;;
35418;SDS011;21525;41.240;16.500;2023-02-28T08:32:04;27.80;;;12.80;;
35418;SDS011;21525;41.240;16.500;2023-02-28T08:34:30;33.03;;;12.60;;
35418;SDS011;21525;41.240;16.500;2023-02-28T08:36:56;22.02;;;11.50;;
35418;SDS011;21525;41.240;16.500;2023-02-28T08:39:22;23.05;;;11.48;;
35418;SDS011;21525;41.240;16.500;2023-02-28T08:41:47;26.88;;;12.48;;
35418;SDS011;21525;41.240;16.500;2023-02-28T08:44:13;25.70;;;11.98;;
35418;SDS011;21525;41.240;16.500;2023-02-28T08:46:39;29.35;;;13.93;;
35418;SDS011;21525;41.240;16.500;2023-02-28T08:49:05;29.85;;;15.32;;
35418;SDS011;21525;41.240;16.500;2023-02-28T08:51:32;35.75;;;15.88;;
35418;SDS011;21525;41.240;16.500;2023-02-28T08:53:59;24.02;;;11.57;;
35418;SDS011;21525;41.240;16.500;2023-02-28T08:56:26;17.60;;;9.05;;
35418;SDS011;21525;41.240;16.500;2023-02-28T08:58:53;29.10;;;11.63;;
35418;SDS011;21525;41.240;16.500;2023-02-28T09:01:22;24.00;;;11.50;;
35418;SDS011;21525;41.240;16.500;2023-02-28T09:03:49;32.13;;;11.52;;
35418;SDS011;21525;41.240;16.500;2023-02-28T09:06:17;30.33;;;12.05;;
35418;SDS011;21525;41.240;16.500;2023-02-28T09:08:44;28.95;;;10.40;;
35418;SDS011;21525;41.240;16.500;2023-02-28T09:11:10;18.95;;;7.65;;
35418;SDS011;21525;41.240;16.500;2023-02-28T09:13:36;21.98;;;8.68;;
35418;SDS011;21525;41.240;16.500;2023-02-28T09:16:04;13.70;;;5.47;;
35418;SDS011;21525;41.240;16.500;2023-02-28T09:18:31;14.40;;;5.03;;
35418;SDS011;21525;41.240;16.500;2023-02-28T09:23:27;16.33;;;4.38;;
35418;SDS011;21525;41.240;16.500;2023-02-28T09:25:53;10.38;;;4.05;;
35418;SDS011;21525;41.240;16.500;2023-02-28T09:28:20;16.83;;;5.85;;
35418;SDS011;21525;41.240;16.500;2023-02-28T09:30:48;12.40;;;4.70;;
35418;SDS011;21525;41.240;16.500;2023-02-28T09:33:17;15.57;;;4.10;;
35418;SDS011;21525;41.240;16.500;2023-02-28T09:35:46;16.83;;;4.90;;
35418;SDS011;21525;41.240;16.500;2023-02-28T09:38:13;16.02;;;4.50;;
35418;SDS011;21525;41.240;16.500;2023-02-28T09:40:52;144.15;;;14.73;;
35418;SDS011;21525;41.240;16.500;2023-02-28T09:43:21;14.57;;;4.55;;
35418;SDS011;21525;41.240;16.500;2023-02-28T09:45:55;12.82;;;4.20;;
35418;SDS011;21525;41.240;16.500;2023-02-28T09:48:27;13.50;;;3.08;;
35418;SDS011;21525;41.240;16.500;2023-02-28T09:51:44;13.32;;;4.47;;
35418;SDS011;21525;41.240;16.500;2023-02-28T09:53:59;13.15;;;3.92;;
35418;SDS011;21525;41.240;16.500;2023-02-28T09:56:42;12.80;;;3.20;;
35418;SDS011;21525;41.240;16.500;2023-02-28T10:07:07;15.80;;;3.60;;
35418;SDS011;21525;41.240;16.500;2023-02-28T10:09:45;9.32;;;2.80;;
35418;SDS011;21525;41.240;16.500;2023-02-28T10:12:16;10.60;;;2.80;;
35418;SDS011;21525;41.240;16.500;2023-02-28T10:14:44;8.30;;;2.65;;
35418;SDS011;21525;41.240;16.500;2023-02-28T10:17:14;11.40;;;4.70;;
35418;SDS011;21525;41.240;16.500;2023-02-28T10:22:22;6.30;;;2.92;;
35418;SDS011;21525;41.240;16.500;2023-02-28T10:24:55;13.15;;;4.40;;
35418;SDS011;21525;41.240;16.500;2023-02-28T10:27:26;13.20;;;3.92;;
35418;SDS011;21525;41.240;16.500;2023-02-28T10:29:57;12.02;;;4.20;;
35418;SDS011;21525;41.240;16.500;2023-02-28T10:42:57;15.52;;;6.88;;
35418;SDS011;21525;41.240;16.500;2023-02-28T10:45:34;16.83;;;6.63;;
35418;SDS011;21525;41.240;16.500;2023-02-28T10:55:35;9.45;;;4.15;;
35418;SDS011;21525;41.240;16.500;2023-02-28T10:58:02;9.13;;;4.70;;
35418;SDS011;21525;41.240;16.500;2023-02-28T11:00:35;18.65;;;4.05;;
35418;SDS011;21525;41.240;16.500;2023-02-28T11:03:01;13.13;;;4.40;;
35418;SDS011;21525;41.240;16.500;2023-02-28T11:05:47;8.00;;;4.07;;
35418;SDS011;21525;41.240;16.500;2023-02-28T11:08:15;7.20;;;3.67;;
35418;SDS011;21525;41.240;16.500;2023-02-28T11:10:53;12.17;;;4.73;;
35418;SDS011;21525;41.240;16.500;2023-02-28T11:13:24;11.02;;;3.88;;
35418;SDS011;21525;41.240;16.500;2023-02-28T11:15:55;12.98;;;4.15;;
35418;SDS011;21525;41.240;16.500;2023-02-28T11:20:53;16.83;;;4.45;;
35418;SDS011;21525;41.240;16.500;2023-02-28T11:23:21;12.48;;;3.80;;
35418;SDS011;21525;41.240;16.500;2023-02-28T11:25:54;10.95;;;3.70;;
35418;SDS011;21525;41.240;16.500;2023-02-28T11:28:33;20.95;;;5.32;;
35418;SDS011;21525;41.240;16.500;2023-02-28T11:36:25;13.73;;;5.63;;
35418;SDS011;21525;41.240;16.500;2023-02-28T11:38:53;14.52;;;4.70;;
35418;SDS011;21525;41.240;16.500;2023-02-28T11:51:48;8.30;;;3.38;;
35418;SDS011;21525;41.240;16.500;2023-02-28T11:56:50;8.32;;;3.40;;
35418;SDS011;21525;41.240;16.500;2023-02-28T12:05:34;18.50;;;6.72;;
35418;SDS011;21525;41.240;16.500;2023-02-28T12:10:27;7.47;;;3.60;;
35418;SDS011;21525;41.240;16.500;2023-02-28T12:15:36;7.90;;;3.05;;
35418;SDS011;21525;41.240;16.500;2023-02-28T12:26:42;11.32;;;3.90;;
35418;SDS011;21525;41.240;16.500;2023-02-28T12:31:45;11.52;;;3.65;;
35418;SDS011;21525;41.240;16.500;2023-02-28T12:34:19;13.40;;;4.35;;
35418;SDS011;21525;41.240;16.500;2023-02-28T12:36:48;11.25;;;4.03;;
35418;SDS011;21525;41.240;16.500;2023-02-28T12:39:29;11.48;;;3.28;;
35418;SDS011;21525;41.240;16.500;2023-02-28T12:42:01;8.45;;;3.60;;
35418;SDS011;21525;41.240;16.500;2023-02-28T12:44:38;13.55;;;3.75;;
35418;SDS011;21525;41.240;16.500;2023-02-28T12:47:12;20.52;;;4.32;;
35418;SDS011;21525;41.240;16.500;2023-02-28T12:49:50;7.78;;;3.60;;
35418;SDS011;21525;41.240;16.500;2023-02-28T12:52:25;8.38;;;4.22;;
35418;SDS011;21525;41.240;16.500;2023-02-28T13:00:43;11.20;;;3.90;;
35418;SDS011;21525;41.240;16.500;2023-02-28T13:06:49;10.27;;;4.40;;
35418;SDS011;21525;41.240;16.500;2023-02-28T13:09:22;11.80;;;4.65;;
35418;SDS011;21525;41.240;16.500;2023-02-28T13:11:49;10.35;;;4.55;;
35418;SDS011;21525;41.240;16.500;2023-02-28T13:19:25;14.20;;;5.40;;
35418;SDS011;21525;41.240;16.500;2023-02-28T13:21:53;9.32;;;4.47;;
35418;SDS011;21525;41.240;16.500;2023-02-28T13:29:42;10.38;;;4.78;;
35418;SDS011;21525;41.240;16.500;2023-02-28T13:34:39;11.18;;;4.93;;
35418;SDS011;21525;41.240;16.500;2023-02-28T13:42:51;12.30;;;5.28;;
35418;SDS011;21525;41.240;16.500;2023-02-28T13:45:23;9.02;;;4.97;;
35418;SDS011;21525;41.240;16.500;2023-02-28T13:48:03;13.20;;;5.43;;
35418;SDS011;21525;41.240;16.500;2023-02-28T13:50:39;13.05;;;5.32;;
35418;SDS011;21525;41.240;16.500;2023-02-28T14:07:17;16.40;;;9.20;;
35418;SDS011;21525;41.240;16.500;2023-02-28T14:09:49;11.05;;;6.10;;
35418;SDS011;21525;41.240;16.500;2023-02-28T14:20:26;11.52;;;5.07;;
35418;SDS011;21525;41.240;16.500;2023-02-28T14:31:27;18.02;;;5.93;;
35418;SDS011;21525;41.240;16.500;2023-02-28T14:36:39;17.05;;;6.28;;
35418;SDS011;21525;41.240;16.500;2023-02-28T14:39:10;10.75;;;6.20;;
35418;SDS011;21525;41.240;16.500;2023-02-28T14:41:40;14.15;;;6.30;;
35418;SDS011;21525;41.240;16.500;2023-02-28T14:46:52;13.70;;;8.32;;
35418;SDS011;21525;41.240;16.500;2023-02-28T14:49:21;16.27;;;8.00;;
35418;SDS011;21525;41.240;16.500;2023-02-28T14:52:06;14.63;;;7.50;;
35418;SDS011;21525;41.240;16.500;2023-02-28T14:54:40;15.23;;;6.13;;
35418;SDS011;21525;41.240;16.500;2023-02-28T14:57:20;19.73;;;6.05;;
35418;SDS011;21525;41.240;16.500;2023-02-28T15:02:38;18.05;;;7.15;;
35418;SDS011;21525;41.240;16.500;2023-02-28T15:07:47;14.02;;;5.47;;
35418;SDS011;21525;41.240;16.500;2023-02-28T15:10:21;20.83;;;5.53;;
35418;SDS011;21525;41.240;16.500;2023-02-28T15:12:51;16.60;;;7.97;;
35418;SDS011;21525;41.240;16.500;2023-02-28T15:15:28;20.13;;;7.95;;
35418;SDS011;21525;41.240;16.500;2023-02-28T15:21:06;16.38;;;8.43;;
35418;SDS011;21525;41.240;16.500;2023-02-28T15:23:37;17.70;;;6.90;;
35418;SDS011;21525;41.240;16.500;2023-02-28T15:26:04;17.45;;;6.05;;
35418;SDS011;21525;41.240;16.500;2023-02-28T15:28:31;15.13;;;6.72;;
35418;SDS011;21525;41.240;16.500;2023-02-28T15:30:58;20.80;;;9.57;;
35418;SDS011;21525;41.240;16.500;2023-02-28T15:33:27;25.20;;;14.00;;
35418;SDS011;21525;41.240;16.500;2023-02-28T15:36:10;25.65;;;9.80;;
35418;SDS011;21525;41.240;16.500;2023-02-28T15:38:40;20.38;;;9.50;;
35418;SDS011;21525;41.240;16.500;2023-02-28T15:41:20;19.92;;;7.15;;
35418;SDS011;21525;41.240;16.500;2023-02-28T15:43:48;12.52;;;5.20;;
35418;SDS011;21525;41.240;16.500;2023-02-28T15:46:14;18.90;;;5.75;;
35418;SDS011;21525;41.240;16.500;2023-02-28T15:48:45;18.00;;;6.20;;
35418;SDS011;21525;41.240;16.500;2023-02-28T15:56:24;17.30;;;7.18;;
35418;SDS011;21525;41.240;16.500;2023-02-28T15:58:56;15.77;;;4.80;;
35418;SDS011;21525;41.240;16.500;2023-02-28T16:01:27;13.45;;;5.13;;
35418;SDS011;21525;41.240;16.500;2023-02-28T16:04:03;19.83;;;8.60;;
35418;SDS011;21525;41.240;16.500;2023-02-28T16:09:11;13.93;;;6.72;;
35418;SDS011;21525;41.240;16.500;2023-02-28T16:14:08;17.95;;;6.13;;
35418;SDS011;21525;41.240;16.500;2023-02-28T16:16:41;19.63;;;7.50;;
35418;SDS011;21525;41.240;16.500;2023-02-28T16:19:09;18.80;;;7.10;;
35418;SDS011;21525;41.240;16.500;2023-02-28T16:21:36;13.23;;;7.13;;
35418;SDS011;21525;41.240;16.500;2023-02-28T16:24:02;16.83;;;7.00;;
35418;SDS011;21525;41.240;16.500;2023-02-28T16:26:27;12.23;;;5.53;;
35418;SDS011;21525;41.240;16.500;2023-02-28T16:28:53;14.20;;;5.90;;
35418;SDS011;21525;41.240;16.500;2023-02-28T16:31:20;18.95;;;7.13;;
35418;SDS011;21525;41.240;16.500;2023-02-28T16:33:46;19.77;;;8.00;;
35418;SDS011;21525;41.240;16.500;2023-02-28T16:36:13;11.35;;;5.80;;
35418;SDS011;21525;41.240;16.500;2023-02-28T16:38:46;11.40;;;4.70;;
35418;SDS011;21525;41.240;16.500;2023-02-28T16:41:14;14.32;;;5.68;;
35418;SDS011;21525;41.240;16.500;2023-02-28T16:43:49;10.82;;;4.70;;
35418;SDS011;21525;41.240;16.500;2023-02-28T16:46:16;12.93;;;5.07;;
35418;SDS011;21525;41.240;16.500;2023-02-28T16:48:43;18.80;;;7.50;;
35418;SDS011;21525;41.240;16.500;2023-02-28T16:51:14;17.95;;;6.32;;
35418;SDS011;21525;41.240;16.500;2023-02-28T16:53:41;13.70;;;4.60;;
35418;SDS011;21525;41.240;16.500;2023-02-28T16:56:41;12.80;;;5.00;;
35418;SDS011;21525;41.240;16.500;2023-02-28T16:59:00;9.13;;;3.92;;
35418;SDS011;21525;41.240;16.500;2023-02-28T17:01:27;14.70;;;4.78;;
35418;SDS011;21525;41.240;16.500;2023-02-28T17:03:54;14.05;;;4.93;;
35418;SDS011;21525;41.240;16.500;2023-02-28T17:06:22;12.75;;;4.88;;
35418;SDS011;21525;41.240;16.500;2023-02-28T17:08:50;13.43;;;4.35;;
35418;SDS011;21525;41.240;16.500;2023-02-28T17:11:17;12.88;;;4.43;;
35418;SDS011;21525;41.240;16.500;2023-02-28T17:13:43;17.23;;;5.13;;
35418;SDS011;21525;41.240;16.500;2023-02-28T17:16:31;16.10;;;4.15;;
35418;SDS011;21525;41.240;16.500;2023-02-28T17:18:59;12.10;;;4.63;;
35418;SDS011;21525;41.240;16.500;2023-02-28T17:21:27;14.30;;;5.13;;
35418;SDS011;21525;41.240;16.500;2023-02-28T17:23:53;15.43;;;5.22;;
35418;SDS011;21525;41.240;16.500;2023-02-28T17:26:19;18.23;;;4.50;;
35418;SDS011;21525;41.240;16.500;2023-02-28T17:28:49;13.27;;;5.22;;
35418;SDS011;21525;41.240;16.500;2023-02-28T17:31:17;15.30;;;5.82;;
35418;SDS011;21525;41.240;16.500;2023-02-28T17:33:43;13.07;;;5.60;;
35418;SDS011;21525;41.240;16.500;2023-02-28T17:36:10;15.55;;;6.03;;
35418;SDS011;21525;41.240;16.500;2023-02-28T17:38:40;12.75;;;4.82;;
35418;SDS011;21525;41.240;16.500;2023-02-28T17:41:06;13.88;;;5.10;;
35418;SDS011;21525;41.240;16.500;2023-02-28T17:43:33;14.70;;;5.40;;
35418;SDS011;21525;41.240;16.500;2023-02-28T17:45:59;18.10;;;5.38;;
35418;SDS011;21525;41.240;16.500;2023-02-28T17:48:25;19.55;;;6.13;;
35418;SDS011;21525;41.240;16.500;2023-02-28T17:50:50;13.55;;;4.95;;
35418;SDS011;21525;41.240;16.500;2023-02-28T17:53:16;10.55;;;4.85;;
35418;SDS011;21525;41.240;16.500;2023-02-28T17:55:43;17.73;;;5.00;;
35418;SDS011;21525;41.240;16.500;2023-02-28T17:58:09;13.07;;;4.50;;